sensor_id;sensor_type;location;lat;lon;timestamp;temperature;humidity
8643;DHT22;4359;49.358;11.256;2024-01-16T00:01:43;-1.30;99.90
8643;DHT22;4359;49.358;11.256;2024-01-16T00:04:09;-1.20;99.90
8643;DHT22;4359;49.358;11.256;2024-01-16T00:06:42;-1.20;99.90
8643;DHT22;4359;49.358;11.256;2024-01-16T00:09:08;-1.30;99.90
8643;DHT22;4359;49.358;11.256;2024-01-16T00:11:42;-1.30;99.90
8643;DHT22;4359;49.358;11.256;2024-01-16T00:14:07;-1.30;99.90
8643;DHT22;4359;49.358;11.256;2024-01-16T00:16:33;-1.30;99.90
8643;DHT22;4359;49.358;11.256;2024-01-16T00:18:59;-1.30;99.90
8643;DHT22;4359;49.358;11.256;2024-01-16T00:21:24;-1.30;99.90
8643;DHT22;4359;49.358;11.256;2024-01-16T00:23:50;-1.40;99.90
8643;DHT22;4359;49.358;11.256;2024-01-16T00:26:19;-1.40;99.90
8643;DHT22;4359;49.358;11.256;2024-01-16T00:28:45;-1.40;99.90
8643;DHT22;4359;49.358;11.256;2024-01-16T00:31:11;-1.30;99.90
8643;DHT22;4359;49.358;11.256;2024-01-16T00:33:36;-1.30;99.90
8643;DHT22;4359;49.358;11.256;2024-01-16T00:36:02;-1.30;99.90
8643;DHT22;4359;49.358;11.256;2024-01-16T00:38:28;-1.40;99.90
8643;DHT22;4359;49.358;11.256;2024-01-16T00:40:53;-1.30;99.90
8643;DHT22;4359;49.358;11.256;2024-01-16T00:43:19;-1.30;99.90
8643;DHT22;4359;49.358;11.256;2024-01-16T00:45:45;-1.30;99.90
8643;DHT22;4359;49.358;11.256;2024-01-16T00:48:12;-1.30;99.90
8643;DHT22;4359;49.358;11.256;2024-01-16T00:50:39;-1.30;99.90
8643;DHT22;4359;49.358;11.256;2024-01-16T00:53:04;-1.30;99.90
8643;DHT22;4359;49.358;11.256;2024-01-16T00:55:30;-1.30;99.90
8643;DHT22;4359;49.358;11.256;2024-01-16T00:57:56;-1.20;99.90
8643;DHT22;4359;49.358;11.256;2024-01-16T01:00:21;-1.30;99.90
8643;DHT22;4359;49.358;11.256;2024-01-16T01:02:47;-1.40;99.90
8643;DHT22;4359;49.358;11.256;2024-01-16T01:05:13;-1.30;99.90
8643;DHT22;4359;49.358;11.256;2024-01-16T01:07:38;-1.30;99.90
8643;DHT22;4359;49.358;11.256;2024-01-16T01:10:04;-1.20;99.90
8643;DHT22;4359;49.358;11.256;2024-01-16T01:12:30;-1.30;99.90
8643;DHT22;4359;49.358;11.256;2024-01-16T01:14:56;-1.30;99.90
8643;DHT22;4359;49.358;11.256;2024-01-16T01:17:22;-1.40;99.90
8643;DHT22;4359;49.358;11.256;2024-01-16T01:19:47;-1.40;99.90
8643;DHT22;4359;49.358;11.256;2024-01-16T01:22:13;-1.40;99.90
8643;DHT22;4359;49.358;11.256;2024-01-16T01:24:38;-1.40;99.90
8643;DHT22;4359;49.358;11.256;2024-01-16T01:27:04;-1.40;99.90
8643;DHT22;4359;49.358;11.256;2024-01-16T01:29:31;-1.40;99.90
8643;DHT22;4359;49.358;11.256;2024-01-16T01:31:56;-1.40;99.90
8643;DHT22;4359;49.358;11.256;2024-01-16T01:34:22;-1.40;99.90
8643;DHT22;4359;49.358;11.256;2024-01-16T01:36:47;-1.40;99.90
8643;DHT22;4359;49.358;11.256;2024-01-16T01:39:13;-1.40;99.90
8643;DHT22;4359;49.358;11.256;2024-01-16T01:41:39;-1.40;99.90
8643;DHT22;4359;49.358;11.256;2024-01-16T01:44:05;-1.50;99.90
8643;DHT22;4359;49.358;11.256;2024-01-16T01:46:33;-1.40;99.90
8643;DHT22;4359;49.358;11.256;2024-01-16T01:49:00;-1.40;99.90
8643;DHT22;4359;49.358;11.256;2024-01-16T01:51:26;-1.40;99.90
8643;DHT22;4359;49.358;11.256;2024-01-16T01:53:52;-1.50;99.90
8643;DHT22;4359;49.358;11.256;2024-01-16T01:56:19;-1.50;99.90
8643;DHT22;4359;49.358;11.256;2024-01-16T01:58:47;-1.50;99.90
8643;DHT22;4359;49.358;11.256;2024-01-16T02:01:15;-1.50;99.90
8643;DHT22;4359;49.358;11.256;2024-01-16T02:03:43;-1.50;99.90
8643;DHT22;4359;49.358;11.256;2024-01-16T02:06:13;-1.50;99.90
8643;DHT22;4359;49.358;11.256;2024-01-16T02:08:40;-1.50;99.90
8643;DHT22;4359;49.358;11.256;2024-01-16T02:11:06;-1.50;99.90
8643;DHT22;4359;49.358;11.256;2024-01-16T02:13:32;-1.50;99.90
8643;DHT22;4359;49.358;11.256;2024-01-16T02:15:58;-1.50;99.90
8643;DHT22;4359;49.358;11.256;2024-01-16T02:18:24;-1.50;99.90
8643;DHT22;4359;49.358;11.256;2024-01-16T02:20:50;-1.50;99.90
8643;DHT22;4359;49.358;11.256;2024-01-16T02:23:22;-1.50;99.90
8643;DHT22;4359;49.358;11.256;2024-01-16T02:25:49;-1.50;99.90
8643;DHT22;4359;49.358;11.256;2024-01-16T02:28:14;-1.50;99.90
8643;DHT22;4359;49.358;11.256;2024-01-16T02:30:41;-1.60;99.90
8643;DHT22;4359;49.358;11.256;2024-01-16T02:33:07;-1.60;99.90
8643;DHT22;4359;49.358;11.256;2024-01-16T02:35:33;-1.60;99.90
8643;DHT22;4359;49.358;11.256;2024-01-16T02:37:59;-1.60;99.90
8643;DHT22;4359;49.358;11.256;2024-01-16T02:40:26;-1.60;99.90
8643;DHT22;4359;49.358;11.256;2024-01-16T02:42:52;-1.60;99.90
8643;DHT22;4359;49.358;11.256;2024-01-16T02:45:18;-1.50;99.90
8643;DHT22;4359;49.358;11.256;2024-01-16T02:47:43;-1.50;99.90
8643;DHT22;4359;49.358;11.256;2024-01-16T02:50:09;-1.50;99.90
8643;DHT22;4359;49.358;11.256;2024-01-16T02:52:37;-1.50;99.90
8643;DHT22;4359;49.358;11.256;2024-01-16T02:55:04;-1.60;99.90
8643;DHT22;4359;49.358;11.256;2024-01-16T02:57:30;-1.60;99.90
8643;DHT22;4359;49.358;11.256;2024-01-16T02:59:56;-1.50;99.90
8643;DHT22;4359;49.358;11.256;2024-01-16T03:02:21;-1.50;99.90
8643;DHT22;4359;49.358;11.256;2024-01-16T03:04:48;-1.60;99.90
8643;DHT22;4359;49.358;11.256;2024-01-16T03:07:14;-1.60;99.90
8643;DHT22;4359;49.358;11.256;2024-01-16T03:09:40;-1.50;99.90
8643;DHT22;4359;49.358;11.256;2024-01-16T03:12:05;-1.50;99.90
8643;DHT22;4359;49.358;11.256;2024-01-16T03:14:31;-1.50;99.90
8643;DHT22;4359;49.358;11.256;2024-01-16T03:17:02;-1.60;99.90
8643;DHT22;4359;49.358;11.256;2024-01-16T03:19:28;-1.60;99.90
8643;DHT22;4359;49.358;11.256;2024-01-16T03:21:53;-1.60;99.90
8643;DHT22;4359;49.358;11.256;2024-01-16T03:24:19;-1.60;99.90
8643;DHT22;4359;49.358;11.256;2024-01-16T03:26:45;-1.60;99.90
8643;DHT22;4359;49.358;11.256;2024-01-16T03:29:11;-1.60;99.90
8643;DHT22;4359;49.358;11.256;2024-01-16T03:31:36;-1.60;99.90
8643;DHT22;4359;49.358;11.256;2024-01-16T03:34:02;-1.60;99.90
8643;DHT22;4359;49.358;11.256;2024-01-16T03:36:28;-1.60;99.90
8643;DHT22;4359;49.358;11.256;2024-01-16T03:38:53;-1.60;99.90
8643;DHT22;4359;49.358;11.256;2024-01-16T03:41:19;-1.60;99.90
8643;DHT22;4359;49.358;11.256;2024-01-16T03:43:44;-1.60;99.90
8643;DHT22;4359;49.358;11.256;2024-01-16T03:46:13;-1.60;99.90
8643;DHT22;4359;49.358;11.256;2024-01-16T03:48:39;-1.60;99.90
8643;DHT22;4359;49.358;11.256;2024-01-16T03:51:04;-1.60;99.90
8643;DHT22;4359;49.358;11.256;2024-01-16T03:53:32;-1.70;99.90
8643;DHT22;4359;49.358;11.256;2024-01-16T03:55:57;-1.60;99.90
8643;DHT22;4359;49.358;11.256;2024-01-16T03:58:23;-1.70;99.90
8643;DHT22;4359;49.358;11.256;2024-01-16T04:00:48;-1.70;99.90
8643;DHT22;4359;49.358;11.256;2024-01-16T04:03:17;-1.70;99.90
8643;DHT22;4359;49.358;11.256;2024-01-16T04:05:42;-1.60;99.90
8643;DHT22;4359;49.358;11.256;2024-01-16T04:08:08;-1.60;99.90
8643;DHT22;4359;49.358;11.256;2024-01-16T04:10:34;-1.70;99.90
8643;DHT22;4359;49.358;11.256;2024-01-16T04:13:01;-1.80;99.90
8643;DHT22;4359;49.358;11.256;2024-01-16T04:15:27;-1.70;99.90
8643;DHT22;4359;49.358;11.256;2024-01-16T04:17:54;-1.80;99.90
8643;DHT22;4359;49.358;11.256;2024-01-16T04:20:19;-1.80;99.90
8643;DHT22;4359;49.358;11.256;2024-01-16T04:22:45;-1.70;99.90
8643;DHT22;4359;49.358;11.256;2024-01-16T04:25:11;-1.80;99.90
8643;DHT22;4359;49.358;11.256;2024-01-16T04:27:36;-1.70;99.90
8643;DHT22;4359;49.358;11.256;2024-01-16T04:30:02;-1.80;99.90
8643;DHT22;4359;49.358;11.256;2024-01-16T04:32:28;-1.80;99.90
8643;DHT22;4359;49.358;11.256;2024-01-16T04:34:54;-1.70;99.90
8643;DHT22;4359;49.358;11.256;2024-01-16T04:37:19;-1.80;99.90
8643;DHT22;4359;49.358;11.256;2024-01-16T04:39:45;-1.80;99.90
8643;DHT22;4359;49.358;11.256;2024-01-16T04:42:10;-1.80;99.90
8643;DHT22;4359;49.358;11.256;2024-01-16T04:44:37;-1.80;99.90
8643;DHT22;4359;49.358;11.256;2024-01-16T04:47:02;-1.80;99.90
8643;DHT22;4359;49.358;11.256;2024-01-16T04:49:28;-1.80;99.90
8643;DHT22;4359;49.358;11.256;2024-01-16T04:51:53;-1.80;99.90
8643;DHT22;4359;49.358;11.256;2024-01-16T04:54:19;-1.80;99.90
8643;DHT22;4359;49.358;11.256;2024-01-16T04:56:45;-1.80;99.90
8643;DHT22;4359;49.358;11.256;2024-01-16T04:59:10;-1.80;99.90
8643;DHT22;4359;49.358;11.256;2024-01-16T05:01:36;-1.80;99.90
8643;DHT22;4359;49.358;11.256;2024-01-16T05:04:01;-1.70;99.90
8643;DHT22;4359;49.358;11.256;2024-01-16T05:06:29;-1.80;99.90
8643;DHT22;4359;49.358;11.256;2024-01-16T05:08:55;-1.80;99.90
8643;DHT22;4359;49.358;11.256;2024-01-16T05:11:21;-1.80;99.90
8643;DHT22;4359;49.358;11.256;2024-01-16T05:13:46;-1.80;99.90
8643;DHT22;4359;49.358;11.256;2024-01-16T05:16:12;-1.80;99.90
8643;DHT22;4359;49.358;11.256;2024-01-16T05:18:41;-1.80;99.90
8643;DHT22;4359;49.358;11.256;2024-01-16T05:21:07;-1.80;99.90
8643;DHT22;4359;49.358;11.256;2024-01-16T05:23:32;-1.80;99.90
8643;DHT22;4359;49.358;11.256;2024-01-16T05:25:58;-1.70;99.90
8643;DHT22;4359;49.358;11.256;2024-01-16T05:28:24;-1.70;99.90
8643;DHT22;4359;49.358;11.256;2024-01-16T05:30:49;-1.70;99.90
8643;DHT22;4359;49.358;11.256;2024-01-16T05:33:15;-1.70;99.90
8643;DHT22;4359;49.358;11.256;2024-01-16T05:35:41;-1.80;99.90
8643;DHT22;4359;49.358;11.256;2024-01-16T05:38:06;-1.80;99.90
8643;DHT22;4359;49.358;11.256;2024-01-16T05:40:32;-1.70;99.90
8643;DHT22;4359;49.358;11.256;2024-01-16T05:42:58;-1.70;99.90
8643;DHT22;4359;49.358;11.256;2024-01-16T05:45:23;-1.80;99.90
8643;DHT22;4359;49.358;11.256;2024-01-16T05:47:49;-1.80;99.90
8643;DHT22;4359;49.358;11.256;2024-01-16T05:50:14;-1.80;99.90
8643;DHT22;4359;49.358;11.256;2024-01-16T05:52:43;-1.80;99.90
8643;DHT22;4359;49.358;11.256;2024-01-16T05:55:09;-1.80;99.90
8643;DHT22;4359;49.358;11.256;2024-01-16T05:57:36;-1.90;99.90
8643;DHT22;4359;49.358;11.256;2024-01-16T06:00:04;-1.80;99.90
8643;DHT22;4359;49.358;11.256;2024-01-16T06:02:31;-1.90;99.90
8643;DHT22;4359;49.358;11.256;2024-01-16T06:04:57;-2.00;99.90
8643;DHT22;4359;49.358;11.256;2024-01-16T06:07:22;-1.90;99.90
8643;DHT22;4359;49.358;11.256;2024-01-16T06:09:48;-2.00;99.90
8643;DHT22;4359;49.358;11.256;2024-01-16T06:12:14;-1.90;99.90
8643;DHT22;4359;49.358;11.256;2024-01-16T06:14:40;-1.90;99.90
8643;DHT22;4359;49.358;11.256;2024-01-16T06:17:05;-2.00;99.90
8643;DHT22;4359;49.358;11.256;2024-01-16T06:19:32;-2.00;99.90
8643;DHT22;4359;49.358;11.256;2024-01-16T06:21:58;-2.10;99.90
8643;DHT22;4359;49.358;11.256;2024-01-16T06:24:25;-2.00;99.90
8643;DHT22;4359;49.358;11.256;2024-01-16T06:26:50;-2.10;99.90
8643;DHT22;4359;49.358;11.256;2024-01-16T06:29:16;-2.10;99.90
8643;DHT22;4359;49.358;11.256;2024-01-16T06:31:41;-2.10;99.90
8643;DHT22;4359;49.358;11.256;2024-01-16T06:34:07;-2.00;99.90
8643;DHT22;4359;49.358;11.256;2024-01-16T06:36:34;-2.00;99.90
8643;DHT22;4359;49.358;11.256;2024-01-16T06:39:00;-2.00;99.90
8643;DHT22;4359;49.358;11.256;2024-01-16T06:41:25;-2.00;99.90
8643;DHT22;4359;49.358;11.256;2024-01-16T06:43:51;-2.00;99.90
8643;DHT22;4359;49.358;11.256;2024-01-16T06:46:16;-2.00;99.90
8643;DHT22;4359;49.358;11.256;2024-01-16T06:48:42;-2.10;99.90
8643;DHT22;4359;49.358;11.256;2024-01-16T06:51:08;-2.10;99.90
8643;DHT22;4359;49.358;11.256;2024-01-16T06:53:36;-2.00;99.90
8643;DHT22;4359;49.358;11.256;2024-01-16T06:56:01;-2.00;99.90
8643;DHT22;4359;49.358;11.256;2024-01-16T06:58:28;-2.00;99.90
8643;DHT22;4359;49.358;11.256;2024-01-16T07:00:54;-1.90;99.90
8643;DHT22;4359;49.358;11.256;2024-01-16T07:03:19;-1.90;99.90
8643;DHT22;4359;49.358;11.256;2024-01-16T07:05:45;-2.00;99.90
8643;DHT22;4359;49.358;11.256;2024-01-16T07:08:11;-2.00;99.90
8643;DHT22;4359;49.358;11.256;2024-01-16T07:10:36;-1.90;99.90
8643;DHT22;4359;49.358;11.256;2024-01-16T07:13:02;-1.90;99.90
8643;DHT22;4359;49.358;11.256;2024-01-16T07:15:28;-1.90;99.90
8643;DHT22;4359;49.358;11.256;2024-01-16T07:17:54;-1.90;99.90
8643;DHT22;4359;49.358;11.256;2024-01-16T07:20:19;-1.90;99.90
8643;DHT22;4359;49.358;11.256;2024-01-16T07:22:45;-1.80;99.90
8643;DHT22;4359;49.358;11.256;2024-01-16T07:25:11;-1.80;99.90
8643;DHT22;4359;49.358;11.256;2024-01-16T07:27:36;-1.80;99.90
8643;DHT22;4359;49.358;11.256;2024-01-16T07:30:05;-1.80;99.90
8643;DHT22;4359;49.358;11.256;2024-01-16T07:32:32;-1.80;99.90
8643;DHT22;4359;49.358;11.256;2024-01-16T07:34:57;-1.90;99.90
8643;DHT22;4359;49.358;11.256;2024-01-16T07:37:23;-1.80;99.90
8643;DHT22;4359;49.358;11.256;2024-01-16T07:39:48;-1.90;99.90
8643;DHT22;4359;49.358;11.256;2024-01-16T07:42:14;-1.80;99.90
8643;DHT22;4359;49.358;11.256;2024-01-16T07:44:40;-1.80;99.90
8643;DHT22;4359;49.358;11.256;2024-01-16T07:47:05;-1.70;99.90
8643;DHT22;4359;49.358;11.256;2024-01-16T07:49:31;-1.60;99.90
8643;DHT22;4359;49.358;11.256;2024-01-16T07:51:56;-1.50;99.90
8643;DHT22;4359;49.358;11.256;2024-01-16T07:54:22;-1.50;99.90
8643;DHT22;4359;49.358;11.256;2024-01-16T07:56:48;-1.40;99.90
8643;DHT22;4359;49.358;11.256;2024-01-16T07:59:13;-1.30;99.90
8643;DHT22;4359;49.358;11.256;2024-01-16T08:01:39;-1.40;99.90
8643;DHT22;4359;49.358;11.256;2024-01-16T08:04:05;-1.30;99.90
8643;DHT22;4359;49.358;11.256;2024-01-16T08:06:31;-1.30;99.90
8643;DHT22;4359;49.358;11.256;2024-01-16T08:08:56;-1.30;99.90
8643;DHT22;4359;49.358;11.256;2024-01-16T08:11:23;-1.20;99.90
8643;DHT22;4359;49.358;11.256;2024-01-16T08:13:49;-1.20;99.90
8643;DHT22;4359;49.358;11.256;2024-01-16T08:16:14;-1.10;99.90
8643;DHT22;4359;49.358;11.256;2024-01-16T08:18:40;-1.00;99.90
8643;DHT22;4359;49.358;11.256;2024-01-16T08:21:05;-0.90;99.90
8643;DHT22;4359;49.358;11.256;2024-01-16T08:23:31;-0.80;99.90
8643;DHT22;4359;49.358;11.256;2024-01-16T08:25:56;-0.80;99.90
8643;DHT22;4359;49.358;11.256;2024-01-16T08:28:22;-0.70;99.90
8643;DHT22;4359;49.358;11.256;2024-01-16T08:30:50;-0.70;99.90
8643;DHT22;4359;49.358;11.256;2024-01-16T08:33:16;-0.70;99.90
8643;DHT22;4359;49.358;11.256;2024-01-16T08:35:41;-0.70;99.90
8643;DHT22;4359;49.358;11.256;2024-01-16T08:38:07;-0.80;99.90
8643;DHT22;4359;49.358;11.256;2024-01-16T08:40:33;-0.70;99.90
8643;DHT22;4359;49.358;11.256;2024-01-16T08:42:58;-0.60;99.90
8643;DHT22;4359;49.358;11.256;2024-01-16T08:45:24;-0.60;99.90
8643;DHT22;4359;49.358;11.256;2024-01-16T08:47:51;-0.50;99.90
8643;DHT22;4359;49.358;11.256;2024-01-16T08:50:17;-0.40;99.90
8643;DHT22;4359;49.358;11.256;2024-01-16T08:52:43;-0.20;99.90
8643;DHT22;4359;49.358;11.256;2024-01-16T08:55:09;-0.30;99.90
8643;DHT22;4359;49.358;11.256;2024-01-16T08:57:38;-0.30;99.90
8643;DHT22;4359;49.358;11.256;2024-01-16T09:00:05;-0.20;99.90
8643;DHT22;4359;49.358;11.256;2024-01-16T09:02:31;-0.20;99.90
8643;DHT22;4359;49.358;11.256;2024-01-16T09:04:57;-0.20;99.90
8643;DHT22;4359;49.358;11.256;2024-01-16T09:07:24;-0.10;99.90
8643;DHT22;4359;49.358;11.256;2024-01-16T09:09:50;0.10;99.90
8643;DHT22;4359;49.358;11.256;2024-01-16T09:12:15;0.30;99.90
8643;DHT22;4359;49.358;11.256;2024-01-16T09:14:41;0.40;99.90
8643;DHT22;4359;49.358;11.256;2024-01-16T09:17:07;0.50;99.90
8643;DHT22;4359;49.358;11.256;2024-01-16T09:19:32;0.40;99.90
8643;DHT22;4359;49.358;11.256;2024-01-16T09:21:58;0.30;99.90
8643;DHT22;4359;49.358;11.256;2024-01-16T09:24:23;0.20;99.90
8643;DHT22;4359;49.358;11.256;2024-01-16T09:26:49;0.10;99.90
8643;DHT22;4359;49.358;11.256;2024-01-16T09:29:14;0.10;99.90
8643;DHT22;4359;49.358;11.256;2024-01-16T09:31:41;0.00;99.90
8643;DHT22;4359;49.358;11.256;2024-01-16T09:34:07;0.10;99.90
8643;DHT22;4359;49.358;11.256;2024-01-16T09:36:33;0.20;99.90
8643;DHT22;4359;49.358;11.256;2024-01-16T09:39:01;0.30;99.90
8643;DHT22;4359;49.358;11.256;2024-01-16T09:41:27;0.20;99.90
8643;DHT22;4359;49.358;11.256;2024-01-16T09:43:54;0.30;99.90
8643;DHT22;4359;49.358;11.256;2024-01-16T09:46:22;0.40;99.90
8643;DHT22;4359;49.358;11.256;2024-01-16T09:48:51;0.50;99.90
8643;DHT22;4359;49.358;11.256;2024-01-16T09:51:19;0.60;99.90
8643;DHT22;4359;49.358;11.256;2024-01-16T09:53:44;0.70;99.90
8643;DHT22;4359;49.358;11.256;2024-01-16T09:56:22;0.70;99.90
8643;DHT22;4359;49.358;11.256;2024-01-16T09:58:50;0.40;99.90
8643;DHT22;4359;49.358;11.256;2024-01-16T10:01:20;0.30;99.90
8643;DHT22;4359;49.358;11.256;2024-01-16T10:03:47;0.30;99.90
8643;DHT22;4359;49.358;11.256;2024-01-16T10:06:12;0.50;99.90
8643;DHT22;4359;49.358;11.256;2024-01-16T10:08:39;0.70;99.90
8643;DHT22;4359;49.358;11.256;2024-01-16T10:11:05;0.80;99.90
8643;DHT22;4359;49.358;11.256;2024-01-16T10:13:31;0.90;99.90
8643;DHT22;4359;49.358;11.256;2024-01-16T10:15:58;0.90;99.90
8643;DHT22;4359;49.358;11.256;2024-01-16T10:18:29;0.80;99.90
8643;DHT22;4359;49.358;11.256;2024-01-16T10:21:00;1.00;99.90
8643;DHT22;4359;49.358;11.256;2024-01-16T10:23:26;1.00;99.90
8643;DHT22;4359;49.358;11.256;2024-01-16T10:26:11;1.10;99.90
8643;DHT22;4359;49.358;11.256;2024-01-16T10:28:41;1.20;99.90
8643;DHT22;4359;49.358;11.256;2024-01-16T10:31:08;1.00;99.90
8643;DHT22;4359;49.358;11.256;2024-01-16T10:33:34;1.10;99.90
8643;DHT22;4359;49.358;11.256;2024-01-16T10:36:16;1.00;99.90
8643;DHT22;4359;49.358;11.256;2024-01-16T10:38:45;1.00;99.90
8643;DHT22;4359;49.358;11.256;2024-01-16T10:41:14;0.70;99.90
8643;DHT22;4359;49.358;11.256;2024-01-16T10:43:41;0.50;99.90
8643;DHT22;4359;49.358;11.256;2024-01-16T10:46:15;0.50;99.90
8643;DHT22;4359;49.358;11.256;2024-01-16T10:48:59;0.50;99.90
8643;DHT22;4359;49.358;11.256;2024-01-16T10:51:27;0.40;99.90
8643;DHT22;4359;49.358;11.256;2024-01-16T10:53:58;0.60;99.90
8643;DHT22;4359;49.358;11.256;2024-01-16T10:56:27;0.50;99.90
8643;DHT22;4359;49.358;11.256;2024-01-16T10:59:18;0.70;99.90
8643;DHT22;4359;49.358;11.256;2024-01-16T11:01:49;0.80;99.90
8643;DHT22;4359;49.358;11.256;2024-01-16T11:04:18;0.70;99.90
8643;DHT22;4359;49.358;11.256;2024-01-16T11:06:45;0.60;99.90
8643;DHT22;4359;49.358;11.256;2024-01-16T11:09:13;0.60;99.90
8643;DHT22;4359;49.358;11.256;2024-01-16T11:11:46;0.80;99.90
8643;DHT22;4359;49.358;11.256;2024-01-16T11:14:14;1.10;99.90
8643;DHT22;4359;49.358;11.256;2024-01-16T11:16:41;1.20;99.90
8643;DHT22;4359;49.358;11.256;2024-01-16T11:19:11;1.30;99.90
8643;DHT22;4359;49.358;11.256;2024-01-16T11:21:38;1.40;99.90
8643;DHT22;4359;49.358;11.256;2024-01-16T11:24:04;1.40;99.90
8643;DHT22;4359;49.358;11.256;2024-01-16T11:26:31;1.30;99.90
8643;DHT22;4359;49.358;11.256;2024-01-16T11:31:50;0.90;99.90
8643;DHT22;4359;49.358;11.256;2024-01-16T11:34:16;0.90;99.90
8643;DHT22;4359;49.358;11.256;2024-01-16T11:37:02;1.20;99.90
8643;DHT22;4359;49.358;11.256;2024-01-16T11:39:30;1.30;99.90
8643;DHT22;4359;49.358;11.256;2024-01-16T11:41:56;1.30;99.90
8643;DHT22;4359;49.358;11.256;2024-01-16T11:44:46;1.50;99.90
8643;DHT22;4359;49.358;11.256;2024-01-16T11:47:23;1.60;99.90
8643;DHT22;4359;49.358;11.256;2024-01-16T11:50:09;1.50;99.90
8643;DHT22;4359;49.358;11.256;2024-01-16T11:52:44;1.70;99.90
8643;DHT22;4359;49.358;11.256;2024-01-16T12:00:49;2.30;99.90
8643;DHT22;4359;49.358;11.256;2024-01-16T12:03:21;2.00;99.90
8643;DHT22;4359;49.358;11.256;2024-01-16T12:05:59;1.90;99.90
8643;DHT22;4359;49.358;11.256;2024-01-16T12:08:26;1.60;99.90
8643;DHT22;4359;49.358;11.256;2024-01-16T12:10:52;1.50;99.90
8643;DHT22;4359;49.358;11.256;2024-01-16T12:13:17;1.70;99.90
8643;DHT22;4359;49.358;11.256;2024-01-16T12:15:43;1.60;99.90
8643;DHT22;4359;49.358;11.256;2024-01-16T12:18:09;1.50;99.90
8643;DHT22;4359;49.358;11.256;2024-01-16T12:20:38;1.50;99.90
8643;DHT22;4359;49.358;11.256;2024-01-16T12:23:06;1.60;99.90
8643;DHT22;4359;49.358;11.256;2024-01-16T12:25:33;1.40;99.90
8643;DHT22;4359;49.358;11.256;2024-01-16T12:28:03;1.10;99.90
8643;DHT22;4359;49.358;11.256;2024-01-16T12:30:30;1.20;99.90
8643;DHT22;4359;49.358;11.256;2024-01-16T12:33:13;1.20;99.90
8643;DHT22;4359;49.358;11.256;2024-01-16T12:35:44;1.20;99.90
8643;DHT22;4359;49.358;11.256;2024-01-16T12:38:12;1.50;99.90
8643;DHT22;4359;49.358;11.256;2024-01-16T12:40:50;2.00;99.90
8643;DHT22;4359;49.358;11.256;2024-01-16T12:43:20;2.40;99.90
8643;DHT22;4359;49.358;11.256;2024-01-16T12:45:46;2.70;99.90
8643;DHT22;4359;49.358;11.256;2024-01-16T12:48:11;2.40;99.90
8643;DHT22;4359;49.358;11.256;2024-01-16T12:50:37;2.10;99.90
8643;DHT22;4359;49.358;11.256;2024-01-16T12:53:03;1.80;99.90
8643;DHT22;4359;49.358;11.256;2024-01-16T12:55:31;1.80;99.90
8643;DHT22;4359;49.358;11.256;2024-01-16T12:58:21;1.90;99.90
8643;DHT22;4359;49.358;11.256;2024-01-16T13:00:50;2.10;99.90
8643;DHT22;4359;49.358;11.256;2024-01-16T13:03:18;2.40;99.90
8643;DHT22;4359;49.358;11.256;2024-01-16T13:05:44;2.80;99.90
8643;DHT22;4359;49.358;11.256;2024-01-16T13:08:18;3.00;99.90
8643;DHT22;4359;49.358;11.256;2024-01-16T13:10:45;2.70;99.90
8643;DHT22;4359;49.358;11.256;2024-01-16T13:13:15;2.40;99.90
8643;DHT22;4359;49.358;11.256;2024-01-16T13:15:42;1.90;99.90
8643;DHT22;4359;49.358;11.256;2024-01-16T13:18:22;1.90;99.90
8643;DHT22;4359;49.358;11.256;2024-01-16T13:20:49;2.10;99.90
8643;DHT22;4359;49.358;11.256;2024-01-16T13:23:15;2.00;99.90
8643;DHT22;4359;49.358;11.256;2024-01-16T13:25:45;1.80;99.90
8643;DHT22;4359;49.358;11.256;2024-01-16T13:28:14;1.80;99.90
8643;DHT22;4359;49.358;11.256;2024-01-16T13:30:44;2.00;99.90
8643;DHT22;4359;49.358;11.256;2024-01-16T13:33:10;1.80;99.90
8643;DHT22;4359;49.358;11.256;2024-01-16T13:35:39;1.50;99.90
8643;DHT22;4359;49.358;11.256;2024-01-16T13:38:06;1.50;99.90
8643;DHT22;4359;49.358;11.256;2024-01-16T13:40:32;1.80;99.90
8643;DHT22;4359;49.358;11.256;2024-01-16T13:43:01;2.00;99.90
8643;DHT22;4359;49.358;11.256;2024-01-16T13:45:27;1.70;99.90
8643;DHT22;4359;49.358;11.256;2024-01-16T13:47:54;1.60;99.90
8643;DHT22;4359;49.358;11.256;2024-01-16T13:50:20;1.50;99.90
8643;DHT22;4359;49.358;11.256;2024-01-16T13:52:45;1.50;99.90
8643;DHT22;4359;49.358;11.256;2024-01-16T13:55:11;1.30;99.90
8643;DHT22;4359;49.358;11.256;2024-01-16T13:57:37;1.50;99.90
8643;DHT22;4359;49.358;11.256;2024-01-16T14:00:04;1.30;99.90
8643;DHT22;4359;49.358;11.256;2024-01-16T14:02:30;1.30;99.90
8643;DHT22;4359;49.358;11.256;2024-01-16T14:04:56;1.20;99.90
8643;DHT22;4359;49.358;11.256;2024-01-16T14:07:21;0.90;99.90
8643;DHT22;4359;49.358;11.256;2024-01-16T14:09:47;0.70;99.90
8643;DHT22;4359;49.358;11.256;2024-01-16T14:12:13;0.60;99.90
8643;DHT22;4359;49.358;11.256;2024-01-16T14:14:41;0.60;99.90
8643;DHT22;4359;49.358;11.256;2024-01-16T14:17:07;0.40;99.90
8643;DHT22;4359;49.358;11.256;2024-01-16T14:19:36;0.30;99.90
8643;DHT22;4359;49.358;11.256;2024-01-16T14:22:01;0.30;99.90
8643;DHT22;4359;49.358;11.256;2024-01-16T14:24:27;0.40;99.90
8643;DHT22;4359;49.358;11.256;2024-01-16T14:26:53;0.40;99.90
8643;DHT22;4359;49.358;11.256;2024-01-16T14:29:19;0.40;99.90
8643;DHT22;4359;49.358;11.256;2024-01-16T14:31:45;0.40;99.90
8643;DHT22;4359;49.358;11.256;2024-01-16T14:34:16;0.50;99.90
8643;DHT22;4359;49.358;11.256;2024-01-16T14:36:43;0.40;99.90
8643;DHT22;4359;49.358;11.256;2024-01-16T14:39:08;0.40;99.90
8643;DHT22;4359;49.358;11.256;2024-01-16T14:41:39;0.20;99.90
8643;DHT22;4359;49.358;11.256;2024-01-16T14:44:08;0.10;99.90
8643;DHT22;4359;49.358;11.256;2024-01-16T14:46:37;0.00;99.90
8643;DHT22;4359;49.358;11.256;2024-01-16T14:49:03;-0.10;99.90
8643;DHT22;4359;49.358;11.256;2024-01-16T14:51:29;-0.10;99.90
8643;DHT22;4359;49.358;11.256;2024-01-16T14:53:55;-0.10;99.90
8643;DHT22;4359;49.358;11.256;2024-01-16T14:56:21;-0.10;99.90
8643;DHT22;4359;49.358;11.256;2024-01-16T14:58:46;-0.10;99.90
8643;DHT22;4359;49.358;11.256;2024-01-16T15:01:12;-0.20;99.90
8643;DHT22;4359;49.358;11.256;2024-01-16T15:03:37;-0.30;99.90
8643;DHT22;4359;49.358;11.256;2024-01-16T15:06:04;-0.40;99.90
8643;DHT22;4359;49.358;11.256;2024-01-16T15:08:30;-0.50;99.90
8643;DHT22;4359;49.358;11.256;2024-01-16T15:10:58;-0.60;99.90
8643;DHT22;4359;49.358;11.256;2024-01-16T15:13:26;-0.60;99.90
8643;DHT22;4359;49.358;11.256;2024-01-16T15:15:52;-0.70;99.90
8643;DHT22;4359;49.358;11.256;2024-01-16T15:18:19;-0.80;99.90
8643;DHT22;4359;49.358;11.256;2024-01-16T15:20:45;-0.90;99.90
8643;DHT22;4359;49.358;11.256;2024-01-16T15:23:11;-1.00;99.90
8643;DHT22;4359;49.358;11.256;2024-01-16T15:25:37;-1.10;99.90
8643;DHT22;4359;49.358;11.256;2024-01-16T15:28:03;-1.10;99.90
8643;DHT22;4359;49.358;11.256;2024-01-16T15:30:29;-1.20;99.90
8643;DHT22;4359;49.358;11.256;2024-01-16T15:32:58;-1.30;99.90
8643;DHT22;4359;49.358;11.256;2024-01-16T15:35:24;-1.30;99.90
8643;DHT22;4359;49.358;11.256;2024-01-16T15:37:50;-1.40;99.90
8643;DHT22;4359;49.358;11.256;2024-01-16T15:40:15;-1.50;99.90
8643;DHT22;4359;49.358;11.256;2024-01-16T15:42:41;-1.60;99.90
8643;DHT22;4359;49.358;11.256;2024-01-16T15:45:08;-1.60;99.90
8643;DHT22;4359;49.358;11.256;2024-01-16T15:47:37;-1.70;99.90
8643;DHT22;4359;49.358;11.256;2024-01-16T15:50:02;-1.70;99.90
8643;DHT22;4359;49.358;11.256;2024-01-16T15:52:30;-1.80;99.90
8643;DHT22;4359;49.358;11.256;2024-01-16T15:54:56;-1.80;99.90
8643;DHT22;4359;49.358;11.256;2024-01-16T15:57:22;-1.90;99.90
8643;DHT22;4359;49.358;11.256;2024-01-16T15:59:47;-1.90;99.90